ACA185 CYYZ-CYVR
Flight info
| Callsign | ACA185 |
|---|---|
| Flight time | N/A |
| Altitude | 36000 |
| Route | AVSEP7 MUSIT Q917 SSM DCT AGLIN Q831 GABOV DCT MEDAK DCT DESNU DCT SATOV DCT BOOTH CANUC6 |
| Aircraft | B77W/H-SDE1E2E3FGHIJ2J3J4J5M1RWXY/LB1D1 |
Departure
| Time | N/A |
|---|---|
| Airport | Toronto Pearson International Airport (CYYZ) |
Arrival
| Time | 2026-04-30 20:46 |
|---|---|
| Airport | Vancouver International Airport (CYVR) |
| Time | Latitude | Longitude | Altitude | Speed | Heading |
|---|---|---|---|---|---|
| 2026-04-30 20:00 | 49.59527 | -95.20861 | 38333 ft | 484 kts | 280° |
| 2026-04-30 20:00 | 49.63424 | -95.62134 | 38210 ft | 486 kts | 280° |
| 2026-04-30 20:01 | 49.69464 | -96.29334 | 38078 ft | 465 kts | 279° |
| 2026-04-30 20:01 | 49.72824 | -96.68811 | 38218 ft | 465 kts | 279° |
| 2026-04-30 20:01 | 49.77143 | -97.22146 | 38332 ft | 481 kts | 279° |
| 2026-04-30 20:02 | 49.80939 | -97.72001 | 38181 ft | 472 kts | 279° |
| 2026-04-30 20:02 | 49.82397 | -97.91910 | 38314 ft | 461 kts | 279° |
| 2026-04-30 20:03 | 49.84751 | -98.25040 | 38347 ft | 472 kts | 279° |
| 2026-04-30 20:03 | 49.86339 | -98.48219 | 38320 ft | 481 kts | 278° |
| 2026-04-30 20:03 | 49.91576 | -99.30335 | 38150 ft | 470 kts | 278° |
| 2026-04-30 20:04 | 49.96125 | -100.10380 | 38318 ft | 469 kts | 278° |
| 2026-04-30 20:04 | 49.98234 | -100.51307 | 38386 ft | 481 kts | 277° |
| 2026-04-30 20:05 | 50.02042 | -101.34122 | 38149 ft | 470 kts | 277° |
| 2026-04-30 20:05 | 50.04891 | -102.06458 | 38321 ft | 470 kts | 277° |
| 2026-04-30 20:06 | 50.05618 | -102.27021 | 38299 ft | 479 kts | 277° |
| 2026-04-30 20:06 | 50.06310 | -102.47733 | 38252 ft | 477 kts | 277° |
| 2026-04-30 20:07 | 50.06957 | -102.68165 | 38231 ft | 469 kts | 277° |
| 2026-04-30 20:08 | 50.07853 | -102.98375 | 38239 ft | 466 kts | 277° |
| 2026-04-30 20:08 | 50.08412 | -103.18620 | 38273 ft | 476 kts | 277° |
| 2026-04-30 20:09 | 50.08943 | -103.39350 | 38313 ft | 481 kts | 276° |
| 2026-04-30 20:09 | 50.09661 | -103.70248 | 38236 ft | 469 kts | 276° |
| 2026-04-30 20:10 | 50.10295 | -104.00518 | 38273 ft | 469 kts | 276° |
| 2026-04-30 20:11 | 50.10860 | -104.31478 | 38232 ft | 483 kts | 276° |
| 2026-04-30 20:11 | 50.11186 | -104.52254 | 38260 ft | 478 kts | 276° |
| 2026-04-30 20:12 | 50.11767 | -104.96666 | 38179 ft | 466 kts | 276° |
| 2026-04-30 20:12 | 50.12166 | -105.37160 | 38265 ft | 470 kts | 276° |
| 2026-04-30 20:12 | 50.12412 | -105.78399 | 38316 ft | 482 kts | 275° |
| 2026-04-30 20:13 | 50.12508 | -106.20482 | 38301 ft | 487 kts | 275° |
| 2026-04-30 20:13 | 50.12453 | -106.62409 | 38162 ft | 479 kts | 275° |
| 2026-04-30 20:13 | 50.12256 | -107.03490 | 38128 ft | 469 kts | 275° |
| 2026-04-30 20:13 | 50.11932 | -107.43905 | 38239 ft | 471 kts | 274° |
| 2026-04-30 20:14 | 50.11450 | -107.85116 | 38332 ft | 482 kts | 274° |
| 2026-04-30 20:14 | 50.09989 | -108.69634 | 38142 ft | 483 kts | 273° |
| 2026-04-30 20:14 | 50.09053 | -109.11000 | 38102 ft | 472 kts | 273° |
| 2026-04-30 20:15 | 50.07998 | -109.51537 | 38209 ft | 470 kts | 272° |
| 2026-04-30 20:15 | 50.06778 | -109.92776 | 38326 ft | 480 kts | 272° |
| 2026-04-30 20:15 | 50.05399 | -110.34193 | 38314 ft | 489 kts | 271° |
| 2026-04-30 20:15 | 50.04267 | -110.76723 | 38129 ft | 480 kts | 275° |
| 2026-04-30 20:16 | 50.04504 | -111.17436 | 38118 ft | 474 kts | 274° |
| 2026-04-30 20:16 | 50.06497 | -111.98699 | 38269 ft | 473 kts | 276° |
| 2026-04-30 20:16 | 50.07317 | -112.40101 | 38318 ft | 484 kts | 276° |
| 2026-04-30 20:17 | 50.07995 | -112.82136 | 38224 ft | 486 kts | 275° |
| 2026-04-30 20:17 | 50.08892 | -113.64831 | 38111 ft | 468 kts | 275° |
| 2026-04-30 20:17 | 50.09125 | -114.05355 | 38237 ft | 471 kts | 274° |
| 2026-04-30 20:18 | 50.09203 | -114.46565 | 38319 ft | 480 kts | 274° |
| 2026-04-30 20:18 | 50.05620 | -115.30145 | 38179 ft | 478 kts | 269° |
| 2026-04-30 20:18 | 50.03543 | -115.70787 | 38137 ft | 466 kts | 268° |
| 2026-04-30 20:19 | 50.02296 | -115.93852 | 38227 ft | 468 kts | 268° |
| 2026-04-30 20:19 | 49.98045 | -116.66892 | 38303 ft | 480 kts | 267° |
| 2026-04-30 20:19 | 49.95444 | -117.07910 | 38179 ft | 472 kts | 267° |
| 2026-04-30 20:20 | 49.92778 | -117.47767 | 38057 ft | 460 kts | 267° |
| 2026-04-30 20:20 | 49.90013 | -117.87180 | 38209 ft | 458 kts | 266° |
| 2026-04-30 20:20 | 49.87093 | -118.26786 | 38329 ft | 468 kts | 266° |
| 2026-04-30 20:21 | 49.80701 | -119.07577 | 38158 ft | 469 kts | 265° |
| 2026-04-30 20:21 | 49.77404 | -119.46668 | 38125 ft | 458 kts | 265° |
| 2026-04-30 20:21 | 49.75299 | -119.70703 | 38065 ft | 454 kts | 265° |
| 2026-04-30 20:21 | 49.74871 | -119.75534 | 37441 ft | 456 kts | 264° |
| 2026-04-30 20:22 | 49.74441 | -119.80360 | 37035 ft | 450 kts | 264° |
| 2026-04-30 20:22 | 49.74019 | -119.85065 | 36581 ft | 446 kts | 264° |
| 2026-04-30 20:22 | 49.73594 | -119.89782 | 36147 ft | 441 kts | 264° |
| 2026-04-30 20:22 | 49.72498 | -120.01882 | 35021 ft | 431 kts | 264° |
| 2026-04-30 20:23 | 49.70840 | -120.19938 | 33191 ft | 419 kts | 263° |
| 2026-04-30 20:23 | 49.69197 | -120.37505 | 31411 ft | 407 kts | 263° |
| 2026-04-30 20:23 | 49.67581 | -120.54525 | 29671 ft | 396 kts | 262° |
| 2026-04-30 20:23 | 49.65981 | -120.71109 | 27882 ft | 383 kts | 261° |
| 2026-04-30 20:24 | 49.64416 | -120.87091 | 26292 ft | 371 kts | 259° |
| 2026-04-30 20:24 | 49.63701 | -120.94291 | 25600 ft | 367 kts | 259° |
| 2026-04-30 20:24 | 49.63315 | -120.98170 | 25219 ft | 364 kts | 259° |
| 2026-04-30 20:24 | 49.62930 | -121.02019 | 24847 ft | 362 kts | 259° |
| 2026-04-30 20:25 | 49.62163 | -121.09656 | 24068 ft | 360 kts | 259° |
| 2026-04-30 20:25 | 49.61777 | -121.13474 | 23653 ft | 360 kts | 259° |
| 2026-04-30 20:26 | 49.61008 | -121.21063 | 22768 ft | 356 kts | 259° |
| 2026-04-30 20:26 | 49.60243 | -121.28552 | 21978 ft | 351 kts | 258° |
| 2026-04-30 20:26 | 49.59863 | -121.32260 | 21554 ft | 349 kts | 258° |
| 2026-04-30 20:27 | 49.59107 | -121.39587 | 20812 ft | 344 kts | 258° |
| 2026-04-30 20:27 | 49.58354 | -121.46844 | 20055 ft | 342 kts | 257° |
| 2026-04-30 20:28 | 49.57600 | -121.54058 | 19266 ft | 341 kts | 257° |
| 2026-04-30 20:28 | 49.56846 | -121.61225 | 18509 ft | 337 kts | 257° |
| 2026-04-30 20:29 | 49.56101 | -121.68256 | 17688 ft | 332 kts | 257° |
| 2026-04-30 20:30 | 49.54983 | -121.78752 | 16385 ft | 333 kts | 257° |
| 2026-04-30 20:30 | 49.53879 | -121.89065 | 15204 ft | 312 kts | 257° |
| 2026-04-30 20:31 | 49.52815 | -121.98862 | 14156 ft | 307 kts | 257° |
| 2026-04-30 20:32 | 49.50923 | -122.07877 | 13070 ft | 290 kts | 234° |
| 2026-04-30 20:32 | 49.48779 | -122.13084 | 12411 ft | 284 kts | 236° |
| 2026-04-30 20:33 | 49.47753 | -122.15656 | 12087 ft | 281 kts | 237° |
| 2026-04-30 20:33 | 49.45729 | -122.20752 | 11459 ft | 278 kts | 237° |
| 2026-04-30 20:33 | 49.44720 | -122.23297 | 11146 ft | 280 kts | 237° |
| 2026-04-30 20:34 | 49.42666 | -122.28483 | 10758 ft | 283 kts | 237° |
| 2026-04-30 20:34 | 49.40656 | -122.33545 | 10346 ft | 275 kts | 237° |
| 2026-04-30 20:35 | 49.39601 | -122.35951 | 9968 ft | 275 kts | 229° |
| 2026-04-30 20:35 | 49.38356 | -122.38107 | 9707 ft | 263 kts | 226° |
| 2026-04-30 20:35 | 49.35935 | -122.42183 | 9279 ft | 260 kts | 226° |
| 2026-04-30 20:36 | 49.34714 | -122.44242 | 9038 ft | 260 kts | 226° |
| 2026-04-30 20:36 | 49.33498 | -122.46294 | 8730 ft | 259 kts | 226° |
| 2026-04-30 20:36 | 49.31099 | -122.50370 | 8153 ft | 257 kts | 227° |
| 2026-04-30 20:37 | 49.29903 | -122.52405 | 7845 ft | 256 kts | 227° |
| 2026-04-30 20:37 | 49.28722 | -122.54411 | 7573 ft | 254 kts | 226° |
| 2026-04-30 20:37 | 49.27540 | -122.56426 | 7279 ft | 253 kts | 227° |
| 2026-04-30 20:37 | 49.26367 | -122.58430 | 6990 ft | 253 kts | 227° |
| 2026-04-30 20:38 | 49.25196 | -122.60431 | 6706 ft | 252 kts | 227° |
| 2026-04-30 20:38 | 49.24031 | -122.62422 | 6396 ft | 251 kts | 227° |
| 2026-04-30 20:38 | 49.22869 | -122.64400 | 6105 ft | 250 kts | 227° |
| 2026-04-30 20:39 | 49.20571 | -122.68363 | 5504 ft | 247 kts | 232° |
| 2026-04-30 20:39 | 49.19638 | -122.70560 | 5230 ft | 246 kts | 238° |
| 2026-04-30 20:39 | 49.18769 | -122.72809 | 4963 ft | 246 kts | 238° |
| 2026-04-30 20:40 | 49.16997 | -122.77281 | 4358 ft | 247 kts | 237° |
| 2026-04-30 20:40 | 49.16239 | -122.79582 | 4075 ft | 242 kts | 256° |
| 2026-04-30 20:40 | 49.16222 | -122.82119 | 4010 ft | 233 kts | 276° |
| 2026-04-30 20:41 | 49.16709 | -122.86733 | 3810 ft | 217 kts | 278° |
| 2026-04-30 20:41 | 49.16966 | -122.88997 | 3517 ft | 215 kts | 278° |
| 2026-04-30 20:41 | 49.17224 | -122.91246 | 3236 ft | 213 kts | 279° |
| 2026-04-30 20:41 | 49.17473 | -122.93406 | 2956 ft | 199 kts | 279° |
| 2026-04-30 20:42 | 49.17701 | -122.95404 | 2691 ft | 182 kts | 280° |
| 2026-04-30 20:42 | 49.17909 | -122.97230 | 2455 ft | 168 kts | 280° |
| 2026-04-30 20:42 | 49.18305 | -123.00701 | 2038 ft | 165 kts | 279° |
| 2026-04-30 20:43 | 49.18500 | -123.02401 | 1818 ft | 162 kts | 280° |
| 2026-04-30 20:43 | 49.18692 | -123.04084 | 1602 ft | 158 kts | 279° |
| 2026-04-30 20:43 | 49.18873 | -123.05668 | 1402 ft | 147 kts | 279° |
| 2026-04-30 20:44 | 49.19213 | -123.08655 | 1051 ft | 139 kts | 279° |
| 2026-04-30 20:44 | 49.19372 | -123.10110 | 847 ft | 138 kts | 280° |
| 2026-04-30 20:44 | 49.19710 | -123.12959 | 412 ft | 133 kts | 280° |
| 2026-04-30 20:45 | 49.20025 | -123.15781 | 102 ft | 137 kts | 280° |
| 2026-04-30 20:45 | 49.20183 | -123.17144 | 30 ft | 122 kts | 279° |
| 2026-04-30 20:45 | 49.20305 | -123.18208 | 30 ft | 78 kts | 279° |
| 2026-04-30 20:46 | 49.20357 | -123.19343 | 30 ft | 26 kts | 251° |
| 2026-04-30 20:46 | 49.20305 | -123.19563 | 30 ft | 13 kts | 249° |
| 2026-04-30 20:47 | 49.20253 | -123.19591 | 30 ft | 6 kts | 116° |
| 2026-04-30 20:47 | 49.20230 | -123.19443 | 30 ft | 23 kts | 100° |
| 2026-04-30 20:48 | 49.20172 | -123.18931 | 30 ft | 24 kts | 100° |
| 2026-04-30 20:48 | 49.20143 | -123.18678 | 30 ft | 24 kts | 100° |
| 2026-04-30 20:48 | 49.20109 | -123.18514 | 30 ft | 11 kts | 143° |
| 2026-04-30 20:48 | 49.20019 | -123.18521 | 30 ft | 18 kts | 189° |
| 2026-04-30 20:49 | 49.19860 | -123.18563 | 30 ft | 26 kts | 190° |
| 2026-04-30 20:49 | 49.19779 | -123.18505 | 30 ft | 13 kts | 113° |
| 2026-04-30 20:49 | 49.19758 | -123.18365 | 30 ft | 14 kts | 100° |
| 2026-04-30 20:50 | 49.19670 | -123.18105 | 29 ft | 15 kts | 156° |
| 2026-04-30 20:50 | 49.19590 | -123.18046 | 29 ft | 6 kts | 154° |
| 2026-04-30 20:50 | 49.19574 | -123.18035 | 29 ft | 0 kts | 155° |